createdAt,value
2022-12-28T00:01:33.055Z,30.27
2022-12-28T00:04:05.161Z,29.48
2022-12-28T00:06:34.342Z,29.30
2022-12-28T00:09:02.612Z,34.73
2022-12-28T00:11:31.459Z,34.60
2022-12-28T00:14:02.016Z,42.30
2022-12-28T00:16:37.699Z,46.02
2022-12-28T00:19:15.173Z,43.02
2022-12-28T00:21:45.016Z,46.18
2022-12-28T00:24:20.924Z,43.25
2022-12-28T00:26:50.382Z,39.40
2022-12-28T00:29:18.841Z,37.93
2022-12-28T00:31:47.043Z,38.33
2022-12-28T00:34:15.291Z,39.13
2022-12-28T00:37:09.756Z,40.70
2022-12-28T00:39:12.767Z,39.00
2022-12-28T00:41:40.409Z,39.75
2022-12-28T00:44:09.510Z,43.80
2022-12-28T00:46:37.481Z,42.53
2022-12-28T00:49:06.655Z,37.13
2022-12-28T00:51:34.443Z,38.28
2022-12-28T00:54:02.369Z,37.88
2022-12-28T00:56:30.279Z,40.20
2022-12-28T00:58:59.764Z,39.70
2022-12-28T01:01:28.971Z,41.48
2022-12-28T01:04:01.757Z,40.10
2022-12-28T01:06:29.910Z,44.27
2022-12-28T01:08:58.356Z,52.23
2022-12-28T01:11:30.206Z,48.87
2022-12-28T01:14:01.016Z,46.95
2022-12-28T01:16:32.793Z,48.68
2022-12-28T01:19:04.900Z,43.75
2022-12-28T01:21:34.239Z,37.83
2022-12-28T01:24:04.334Z,35.63
2022-12-28T01:26:34.548Z,32.50
2022-12-28T01:29:03.545Z,27.70
2022-12-28T01:31:33.568Z,31.37
2022-12-28T01:34:02.645Z,29.27
2022-12-28T01:36:34.325Z,28.98
2022-12-28T01:39:05.882Z,29.20
2022-12-28T01:41:40.163Z,28.67
2022-12-28T01:44:13.345Z,28.75
2022-12-28T01:46:50.401Z,27.25
2022-12-28T01:49:26.681Z,28.62
2022-12-28T01:52:24.160Z,25.82
2022-12-28T01:55:00.107Z,25.00
2022-12-28T01:57:33.439Z,29.42
2022-12-28T02:00:06.155Z,27.70
2022-12-28T02:02:36.414Z,23.00
2022-12-28T02:05:05.763Z,20.97
2022-12-28T02:07:53.144Z,19.87
2022-12-28T02:10:43.733Z,19.15
2022-12-28T02:12:53.828Z,17.37
2022-12-28T02:15:23.409Z,18.02
2022-12-28T02:17:51.489Z,16.97
2022-12-28T02:20:19.648Z,15.80
2022-12-28T02:23:07.827Z,15.38
2022-12-28T02:26:02.428Z,15.13
2022-12-28T02:29:15.127Z,19.50
2022-12-28T02:31:51.153Z,19.35
2022-12-28T02:34:26.780Z,18.60
2022-12-28T02:37:01.508Z,17.85
2022-12-28T02:39:37.734Z,18.15
2022-12-28T02:42:09.242Z,17.62
2022-12-28T02:44:57.220Z,18.35
2022-12-28T02:47:43.347Z,16.73
2022-12-28T02:50:15.337Z,17.50
2022-12-28T02:52:54.385Z,16.32
2022-12-28T02:56:02.787Z,16.70
2022-12-28T02:58:52.169Z,16.97
2022-12-28T03:01:45.050Z,18.55
2022-12-28T03:04:53.435Z,17.85
2022-12-28T03:07:47.974Z,18.35
2022-12-28T03:10:32.917Z,16.50
2022-12-28T03:13:10.967Z,14.57
2022-12-28T03:15:38.967Z,15.43
2022-12-28T03:18:34.690Z,13.83
2022-12-28T03:21:25.094Z,12.70
2022-12-28T03:24:13.429Z,12.00
2022-12-28T03:27:05.297Z,12.03
2022-12-28T03:29:58.445Z,13.30
2022-12-28T03:32:26.358Z,22.25
2022-12-28T03:34:55.697Z,18.48
2022-12-28T03:37:38.046Z,16.62
2022-12-28T03:40:34.769Z,14.53
2022-12-28T03:43:32.598Z,16.23
2022-12-28T03:46:04.877Z,15.13
2022-12-28T03:48:36.868Z,15.18
2022-12-28T03:51:05.539Z,16.57
2022-12-28T03:53:43.283Z,17.20
2022-12-28T03:56:17.939Z,16.25
2022-12-28T03:58:48.635Z,17.67
2022-12-28T04:01:17.444Z,17.48
2022-12-28T04:03:45.912Z,15.03
2022-12-28T04:06:17.262Z,13.18
2022-12-28T04:08:46.077Z,13.83
2022-12-28T04:11:14.431Z,12.30
2022-12-28T04:13:43.914Z,12.58
2022-12-28T04:16:14.466Z,12.28
2022-12-28T04:18:43.441Z,13.18
2022-12-28T04:21:16.067Z,12.82
2022-12-28T04:23:44.993Z,13.95
2022-12-28T04:26:20.889Z,13.43
2022-12-28T04:28:50.573Z,13.72
2022-12-28T04:31:21.331Z,13.95
2022-12-28T04:33:51.168Z,12.85
2022-12-28T04:36:19.292Z,13.85
2022-12-28T04:38:47.085Z,13.40
2022-12-28T04:41:14.584Z,13.28
2022-12-28T04:43:42.379Z,14.95
2022-12-28T04:46:17.503Z,13.88
2022-12-28T04:51:25.937Z,15.72
2022-12-28T04:53:56.124Z,15.05
2022-12-28T04:56:25.958Z,14.15
2022-12-28T04:59:00.121Z,14.33
2022-12-28T05:01:28.289Z,14.45
2022-12-28T05:03:59.276Z,18.85
2022-12-28T05:06:27.223Z,19.15
2022-12-28T05:08:56.824Z,15.55
2022-12-28T05:11:28.412Z,13.78
2022-12-28T05:13:57.283Z,14.03
2022-12-28T05:16:28.021Z,13.88
2022-12-28T05:18:57.476Z,15.13
2022-12-28T05:21:27.846Z,14.58
2022-12-28T05:23:56.861Z,13.95
2022-12-28T05:26:28.374Z,14.68
2022-12-28T05:28:58.116Z,13.60
2022-12-28T05:31:26.896Z,13.30
2022-12-28T05:33:55.108Z,13.80
2022-12-28T05:36:26.238Z,14.87
2022-12-28T05:38:55.612Z,14.45
2022-12-28T05:41:27.452Z,14.78
2022-12-28T05:43:58.099Z,15.32
2022-12-28T05:46:30.268Z,15.70
2022-12-28T05:49:01.400Z,15.23
2022-12-28T05:51:31.753Z,16.30
2022-12-28T05:54:03.195Z,15.75
2022-12-28T05:56:32.329Z,16.00
2022-12-28T05:59:03.481Z,17.00
2022-12-28T06:01:35.594Z,17.07
2022-12-28T06:04:08.121Z,18.02
2022-12-28T06:06:36.075Z,19.87
2022-12-28T06:09:04.061Z,18.50
2022-12-28T06:11:32.441Z,19.37
2022-12-28T06:14:02.870Z,20.88
2022-12-28T06:16:33.998Z,21.90
2022-12-28T06:19:16.271Z,22.55
2022-12-28T06:21:44.158Z,23.27
2022-12-28T06:24:13.509Z,37.08
2022-12-28T06:26:41.749Z,27.22
2022-12-28T06:29:10.078Z,33.67
2022-12-28T06:31:42.801Z,39.48
2022-12-28T06:34:10.403Z,29.52
2022-12-28T06:36:42.231Z,25.70
2022-12-28T06:39:13.630Z,22.32
2022-12-28T06:41:42.432Z,24.85
2022-12-28T06:44:13.167Z,20.90
2022-12-28T06:46:41.640Z,19.95
2022-12-28T06:49:11.304Z,18.32
2022-12-28T06:51:41.382Z,19.57
2022-12-28T06:54:10.251Z,19.62
2022-12-28T06:56:39.058Z,19.92
2022-12-28T06:59:07.115Z,20.57
2022-12-28T07:01:39.733Z,33.20
2022-12-28T07:04:09.627Z,82.85
2022-12-28T07:06:43.573Z,32.45
2022-12-28T07:09:14.806Z,23.90
2022-12-28T07:11:44.242Z,30.12
2022-12-28T07:14:15.473Z,25.32
2022-12-28T07:16:43.385Z,28.20
2022-12-28T07:19:11.459Z,32.30
2022-12-28T07:21:40.313Z,27.55
2022-12-28T07:24:11.097Z,45.17
2022-12-28T07:26:38.926Z,81.28
2022-12-28T07:29:08.444Z,57.48
2022-12-28T07:31:45.430Z,50.33
2022-12-28T07:34:10.453Z,28.10
2022-12-28T07:36:38.133Z,27.75
2022-12-28T07:39:06.118Z,27.48
2022-12-28T07:41:35.673Z,30.20
2022-12-28T07:44:05.343Z,23.32
2022-12-28T07:46:35.791Z,30.10
2022-12-28T07:49:04.271Z,27.07
2022-12-28T07:51:35.529Z,27.70
2022-12-28T07:54:05.238Z,17.30
2022-12-28T07:59:05.178Z,20.10
2022-12-28T08:01:35.725Z,27.40
2022-12-28T08:04:11.191Z,20.35
2022-12-28T08:06:41.794Z,21.97
2022-12-28T08:09:12.965Z,18.60
2022-12-28T08:11:44.269Z,27.67
2022-12-28T08:14:13.541Z,15.08
2022-12-28T08:16:44.060Z,15.25
2022-12-28T08:19:13.760Z,14.28
2022-12-28T08:21:44.916Z,16.20
2022-12-28T08:24:17.409Z,14.63
2022-12-28T08:26:47.788Z,16.55
2022-12-28T08:29:20.214Z,16.87
2022-12-28T08:31:49.980Z,14.73
2022-12-28T08:34:28.826Z,13.88
2022-12-28T08:36:58.276Z,13.95
2022-12-28T08:39:28.894Z,13.80
2022-12-28T08:41:58.080Z,14.25
2022-12-28T08:44:26.904Z,15.95
2022-12-28T08:46:58.224Z,15.63
2022-12-28T08:49:30.559Z,16.10
2022-12-28T08:52:00.776Z,16.32
2022-12-28T08:54:29.245Z,16.35
2022-12-28T08:56:57.464Z,13.65
2022-12-28T08:59:26.383Z,13.65
2022-12-28T09:01:54.321Z,13.85
2022-12-28T09:04:22.735Z,17.65
2022-12-28T09:06:50.988Z,12.30
2022-12-28T09:09:22.637Z,12.03
2022-12-28T09:11:50.635Z,12.40
2022-12-28T09:14:23.817Z,12.95
2022-12-28T09:16:48.420Z,11.50
2022-12-28T09:19:16.315Z,10.88
2022-12-28T09:21:47.940Z,12.05
2022-12-28T09:24:16.414Z,10.50
2022-12-28T09:26:44.494Z,8.68
2022-12-28T09:29:14.002Z,8.83
2022-12-28T09:31:44.025Z,12.20
2022-12-28T09:36:44.795Z,11.28
2022-12-28T09:39:20.191Z,18.27
2022-12-28T09:42:10.100Z,11.35
2022-12-28T09:45:00.056Z,12.60
2022-12-28T09:47:38.153Z,11.83
2022-12-28T09:50:22.336Z,12.33
2022-12-28T09:53:07.492Z,10.05
2022-12-28T09:55:38.118Z,11.68
2022-12-28T09:58:14.248Z,10.32
2022-12-28T10:00:49.302Z,12.03
2022-12-28T10:03:27.936Z,11.88
2022-12-28T10:05:57.599Z,12.60
2022-12-28T10:08:27.986Z,11.28
2022-12-28T10:11:00.126Z,12.10
2022-12-28T10:13:54.158Z,12.15
2022-12-28T10:16:13.935Z,12.00
2022-12-28T10:18:41.364Z,8.85
2022-12-28T10:21:09.798Z,9.18
2022-12-28T10:24:04.777Z,7.50
2022-12-28T10:26:16.312Z,3.85
2022-12-28T10:28:58.461Z,4.35
2022-12-28T10:31:38.719Z,4.08
2022-12-28T10:34:22.201Z,3.72
2022-12-28T10:36:52.530Z,3.70
2022-12-28T10:39:29.810Z,2.80
2022-12-28T10:42:03.010Z,2.95
2022-12-28T10:44:41.579Z,3.05
2022-12-28T10:47:18.329Z,4.25
2022-12-28T10:50:10.539Z,4.65
2022-12-28T10:52:22.577Z,6.60
2022-12-28T10:55:07.441Z,5.10
2022-12-28T10:57:29.771Z,4.28
2022-12-28T11:00:22.388Z,7.00
2022-12-28T11:02:50.306Z,6.85
2022-12-28T11:05:23.019Z,4.83
2022-12-28T11:08:04.185Z,4.47
2022-12-28T11:10:32.397Z,2.83
2022-12-28T11:13:01.493Z,3.67
2022-12-28T11:15:33.707Z,2.95
2022-12-28T11:18:16.872Z,4.42
2022-12-28T11:20:51.237Z,4.92
2022-12-28T11:23:25.681Z,4.10
2022-12-28T11:25:53.616Z,3.33
2022-12-28T11:28:22.905Z,3.25
2022-12-28T11:30:52.235Z,3.30
2022-12-28T11:33:42.859Z,3.50
2022-12-28T11:36:23.865Z,3.87
2022-12-28T11:38:54.622Z,3.52
2022-12-28T11:41:34.019Z,4.40
2022-12-28T11:44:05.560Z,5.60
2022-12-28T11:46:37.831Z,5.00
2022-12-28T11:49:27.598Z,5.05
2022-12-28T11:52:22.602Z,8.13
2022-12-28T11:54:55.069Z,4.35
2022-12-28T11:57:40.446Z,4.67
2022-12-28T12:00:23.817Z,23.77
2022-12-28T12:03:00.013Z,8.40
2022-12-28T12:05:43.187Z,5.15
2022-12-28T12:08:20.630Z,3.98
2022-12-28T12:10:51.881Z,3.80
2022-12-28T12:13:31.061Z,3.00
2022-12-28T12:16:07.211Z,5.30
2022-12-28T12:18:50.862Z,3.83
2022-12-28T12:21:33.563Z,3.47
2022-12-28T12:24:29.463Z,7.00
2022-12-28T12:27:17.286Z,2.22
2022-12-28T12:30:05.311Z,3.75
2022-12-28T12:32:44.635Z,2.65
2022-12-28T12:35:23.974Z,6.28
2022-12-28T12:38:05.352Z,8.53
2022-12-28T12:41:14.967Z,2.87
2022-12-28T12:43:50.092Z,2.70
2022-12-28T12:46:41.249Z,5.67
2022-12-28T12:49:39.679Z,4.62
2022-12-28T12:52:46.731Z,6.00
2022-12-28T12:58:28.099Z,4.97
2022-12-28T13:01:27.562Z,4.30
2022-12-28T13:04:02.064Z,4.17
2022-12-28T13:06:37.352Z,5.40
2022-12-28T13:11:39.316Z,6.15
2022-12-28T13:14:19.292Z,5.12
2022-12-28T13:16:51.109Z,5.37
2022-12-28T13:19:23.405Z,7.35
2022-12-28T13:21:52.396Z,6.50
2022-12-28T13:24:31.022Z,6.72
2022-12-28T13:27:00.366Z,6.10
2022-12-28T13:29:37.090Z,5.03
2022-12-28T13:32:05.478Z,7.10
2022-12-28T13:34:34.758Z,5.55
2022-12-28T13:37:15.738Z,6.12
2022-12-28T13:39:44.012Z,5.05
2022-12-28T13:42:18.818Z,4.92
2022-12-28T13:44:59.479Z,5.87
2022-12-28T13:47:49.516Z,4.37
2022-12-28T13:50:29.475Z,4.40
2022-12-28T13:53:08.365Z,6.25
2022-12-28T13:55:44.276Z,4.95
2022-12-28T13:58:19.853Z,5.22
2022-12-28T14:00:49.922Z,5.83
2022-12-28T14:03:19.099Z,4.80
2022-12-28T14:05:53.509Z,5.42
2022-12-28T14:08:22.537Z,4.60
2022-12-28T14:10:51.860Z,4.55
2022-12-28T14:13:20.452Z,5.03
2022-12-28T14:15:49.365Z,7.17
2022-12-28T14:18:18.417Z,5.33
2022-12-28T14:20:54.364Z,5.15
2022-12-28T14:23:30.878Z,5.67
2022-12-28T14:26:07.260Z,8.55
2022-12-28T14:28:43.522Z,7.60
2022-12-28T14:31:14.343Z,8.68
2022-12-28T14:33:50.356Z,8.98
2022-12-28T14:36:22.018Z,9.83
2022-12-28T14:39:01.149Z,14.63
2022-12-28T14:41:36.852Z,12.68
2022-12-28T14:44:09.456Z,45.15
2022-12-28T14:46:39.831Z,58.40
2022-12-28T14:49:31.917Z,64.67
2022-12-28T14:52:17.773Z,81.10
2022-12-28T14:54:50.739Z,108.03
2022-12-28T14:57:36.398Z,116.20
2022-12-28T15:00:09.186Z,117.95
2022-12-28T15:02:41.038Z,131.43
2022-12-28T15:05:40.108Z,177.30
2022-12-28T15:08:09.678Z,160.75
2022-12-28T15:10:58.058Z,118.77
2022-12-28T15:13:27.018Z,120.00
2022-12-28T15:16:00.851Z,121.50
2022-12-28T15:18:30.095Z,142.47
2022-12-28T15:20:57.871Z,180.12
2022-12-28T15:23:25.399Z,180.20
2022-12-28T15:25:53.455Z,131.43
2022-12-28T15:28:25.851Z,99.35
2022-12-28T15:30:53.805Z,67.27
2022-12-28T15:33:21.520Z,98.45
2022-12-28T15:35:49.311Z,65.87
2022-12-28T15:38:17.165Z,81.30
2022-12-28T15:40:46.742Z,68.70
2022-12-28T15:43:14.536Z,60.48
2022-12-28T15:45:42.117Z,55.03
2022-12-28T15:48:09.543Z,63.60
2022-12-28T15:50:37.047Z,90.65
2022-12-28T15:53:05.110Z,84.60
2022-12-28T15:55:33.391Z,104.63
2022-12-28T15:58:01.290Z,69.45
2022-12-28T16:00:29.123Z,53.35
2022-12-28T16:02:57.302Z,41.00
2022-12-28T16:05:25.392Z,41.08
2022-12-28T16:07:53.052Z,43.42
2022-12-28T16:10:21.722Z,40.15
2022-12-28T16:12:49.367Z,46.55
2022-12-28T16:15:19.414Z,60.75
2022-12-28T16:17:56.867Z,72.03
2022-12-28T16:20:17.333Z,66.17
2022-12-28T16:22:47.461Z,51.10
2022-12-28T16:25:18.092Z,47.93
2022-12-28T16:27:45.904Z,39.53
2022-12-28T16:30:14.214Z,46.70
2022-12-28T16:32:43.328Z,42.80
2022-12-28T16:35:11.324Z,41.53
2022-12-28T16:37:39.596Z,36.80
2022-12-28T16:40:09.271Z,36.00
2022-12-28T16:42:36.942Z,39.35
2022-12-28T16:45:05.406Z,43.30
2022-12-28T16:47:33.289Z,46.02
2022-12-28T16:50:01.045Z,41.75
2022-12-28T16:52:29.236Z,44.35
2022-12-28T16:54:57.527Z,42.75
2022-12-28T16:57:26.034Z,39.53
2022-12-28T16:59:53.657Z,39.67
2022-12-28T17:02:23.772Z,37.03
2022-12-28T17:04:51.563Z,37.42
2022-12-28T17:07:18.924Z,31.82
2022-12-28T17:09:50.301Z,30.15
2022-12-28T17:12:19.635Z,27.77
2022-12-28T17:14:49.638Z,36.70
2022-12-28T17:17:17.763Z,43.87
2022-12-28T17:19:45.937Z,49.50
2022-12-28T17:22:13.942Z,36.65
2022-12-28T17:24:42.271Z,42.58
2022-12-28T17:27:17.204Z,39.25
2022-12-28T17:29:40.248Z,37.98
2022-12-28T17:32:08.565Z,35.28
2022-12-28T17:34:38.223Z,34.83
2022-12-28T17:37:06.141Z,36.05
2022-12-28T17:39:40.021Z,34.90
2022-12-28T17:42:06.187Z,37.25
2022-12-28T17:44:34.982Z,39.58
2022-12-28T17:47:02.629Z,34.70
2022-12-28T17:49:30.591Z,34.55
2022-12-28T17:51:58.523Z,38.08
2022-12-28T17:54:26.291Z,38.95
2022-12-28T17:56:53.898Z,39.55
2022-12-28T17:59:22.896Z,38.58
2022-12-28T18:01:51.526Z,41.53
2022-12-28T18:04:19.394Z,44.13
2022-12-28T18:06:47.400Z,42.30
2022-12-28T18:09:15.241Z,43.40
2022-12-28T18:11:44.017Z,37.03
2022-12-28T18:14:12.581Z,35.43
2022-12-28T18:16:40.145Z,33.42
2022-12-28T18:19:07.884Z,31.40
2022-12-28T18:21:35.735Z,32.50
2022-12-28T18:24:03.896Z,31.60
2022-12-28T18:26:50.592Z,33.70
2022-12-28T18:29:22.073Z,35.30
2022-12-28T18:31:54.211Z,38.50
2022-12-28T18:34:21.824Z,38.70
2022-12-28T18:36:49.892Z,43.73
2022-12-28T18:39:17.768Z,39.90
2022-12-28T18:41:45.718Z,38.58
2022-12-28T18:44:13.362Z,38.85
2022-12-28T18:46:41.025Z,38.33
2022-12-28T18:49:09.030Z,36.20
2022-12-28T18:51:36.892Z,33.58
2022-12-28T18:54:05.043Z,34.08
2022-12-28T18:56:32.991Z,36.00
2022-12-28T18:59:00.786Z,34.95
2022-12-28T19:04:00.118Z,40.10
2022-12-28T19:06:28.943Z,39.73
2022-12-28T19:09:00.477Z,36.65
2022-12-28T19:11:28.913Z,41.30
2022-12-28T19:13:57.267Z,35.88
2022-12-28T19:16:32.026Z,34.10
2022-12-28T19:19:05.200Z,33.70
2022-12-28T19:21:40.075Z,36.28
2022-12-28T19:24:15.310Z,36.75
2022-12-28T19:26:45.469Z,35.05
2022-12-28T19:29:18.330Z,34.92
2022-12-28T19:31:45.841Z,34.20
2022-12-28T19:34:16.050Z,35.55
2022-12-28T19:36:43.931Z,37.08
2022-12-28T19:39:12.054Z,41.25
2022-12-28T19:41:40.451Z,43.73
2022-12-28T19:44:08.316Z,43.73
2022-12-28T19:46:42.659Z,44.63
2022-12-28T19:49:10.527Z,45.70
2022-12-28T19:51:38.704Z,41.48
2022-12-28T19:54:07.391Z,43.23
2022-12-28T19:56:35.355Z,42.33
2022-12-28T19:59:06.900Z,42.25
2022-12-28T20:01:35.824Z,41.92
2022-12-28T20:04:11.982Z,41.45
2022-12-28T20:06:34.967Z,41.58
2022-12-28T20:09:02.902Z,40.33
2022-12-28T20:11:30.796Z,40.65
2022-12-28T20:14:02.551Z,44.08
2022-12-28T20:16:32.969Z,44.27
2022-12-28T20:19:01.268Z,40.73
2022-12-28T20:21:29.067Z,40.20
2022-12-28T20:23:56.852Z,35.98
2022-12-28T20:26:26.537Z,39.78
2022-12-28T20:28:56.381Z,39.60
2022-12-28T20:31:25.514Z,38.13
2022-12-28T20:33:53.705Z,34.88
2022-12-28T20:36:27.945Z,34.67
2022-12-28T20:38:56.587Z,37.38
2022-12-28T20:41:48.929Z,38.20
2022-12-28T20:44:25.080Z,36.98
2022-12-28T20:46:54.788Z,36.58
2022-12-28T20:49:29.120Z,35.30
2022-12-28T20:51:57.694Z,36.63
2022-12-28T20:54:26.156Z,35.48
2022-12-28T20:56:55.910Z,36.85
2022-12-28T20:59:25.344Z,36.48
2022-12-28T21:01:53.763Z,33.90
2022-12-28T21:04:25.348Z,34.38
2022-12-28T21:06:54.422Z,32.58
2022-12-28T21:09:22.642Z,33.00
2022-12-28T21:11:50.543Z,32.30
2022-12-28T21:14:18.213Z,32.08
2022-12-28T21:16:46.453Z,32.42
2022-12-28T21:19:14.456Z,30.80
2022-12-28T21:21:42.137Z,30.35
2022-12-28T21:24:10.064Z,28.30
2022-12-28T21:26:38.702Z,29.15
2022-12-28T21:29:06.530Z,34.65
2022-12-28T21:31:36.178Z,34.05
2022-12-28T21:34:03.870Z,35.15
2022-12-28T21:36:31.648Z,34.78
2022-12-28T21:39:00.788Z,35.15
2022-12-28T21:41:46.706Z,34.60
2022-12-28T21:44:22.084Z,32.42
2022-12-28T21:46:53.509Z,30.23
2022-12-28T21:49:21.376Z,27.75
2022-12-28T21:51:49.872Z,24.70
2022-12-28T21:54:21.083Z,27.82
2022-12-28T21:56:53.548Z,25.72
2022-12-28T21:59:25.020Z,25.65
2022-12-28T22:02:13.647Z,23.92
2022-12-28T22:05:03.687Z,23.80
2022-12-28T22:07:34.344Z,25.82
2022-12-28T22:10:20.482Z,22.80
2022-12-28T22:12:48.327Z,23.42
2022-12-28T22:15:38.371Z,24.72
2022-12-28T22:18:24.694Z,23.30
2022-12-28T22:20:41.114Z,26.82
2022-12-28T22:23:09.619Z,31.37
2022-12-28T22:25:37.421Z,28.47
2022-12-28T22:28:06.524Z,24.15
2022-12-28T22:30:38.879Z,23.22
2022-12-28T22:33:06.778Z,20.30
2022-12-28T22:35:35.034Z,20.17
2022-12-28T22:38:02.844Z,20.05
2022-12-28T22:40:31.073Z,20.57
2022-12-28T22:42:59.159Z,22.75
2022-12-28T22:45:27.714Z,21.35
2022-12-28T22:47:58.206Z,22.62
2022-12-28T22:50:28.447Z,23.25
2022-12-28T22:52:57.846Z,24.52
2022-12-28T22:55:25.822Z,24.95
2022-12-28T22:57:53.689Z,24.67
2022-12-28T23:00:21.687Z,22.95
2022-12-28T23:02:49.887Z,21.62
2022-12-28T23:05:17.741Z,21.33
2022-12-28T23:07:45.486Z,21.10
2022-12-28T23:10:13.269Z,23.42
2022-12-28T23:12:41.127Z,21.90
2022-12-28T23:15:19.122Z,20.82
2022-12-28T23:17:48.571Z,19.55
2022-12-28T23:20:35.862Z,19.35
2022-12-28T23:23:22.445Z,17.10
2022-12-28T23:26:08.669Z,17.55
2022-12-28T23:28:37.071Z,17.15
2022-12-28T23:31:06.226Z,17.85
2022-12-28T23:33:36.032Z,16.67
2022-12-28T23:36:05.263Z,17.67
2022-12-28T23:38:33.731Z,16.70
2022-12-28T23:41:25.394Z,18.30
2022-12-28T23:43:53.112Z,18.87
2022-12-28T23:46:21.015Z,18.50
2022-12-28T23:48:48.871Z,18.32
2022-12-28T23:51:17.483Z,18.60
2022-12-28T23:53:45.471Z,18.20
2022-12-28T23:56:13.398Z,17.55
2022-12-28T23:58:40.868Z,16.97
